createdAt,value
2022-08-14T00:02:01.652Z,6.00
2022-08-14T00:04:41.661Z,6.13
2022-08-14T00:07:11.306Z,6.20
2022-08-14T00:09:56.182Z,6.25
2022-08-14T00:12:33.958Z,6.75
2022-08-14T00:15:17.904Z,5.50
2022-08-14T00:17:48.189Z,5.68
2022-08-14T00:20:30.974Z,5.18
2022-08-14T00:23:12.665Z,5.38
2022-08-14T00:25:53.941Z,6.28
2022-08-14T00:28:35.352Z,5.63
2022-08-14T00:31:04.961Z,5.70
2022-08-14T00:33:51.733Z,5.07
2022-08-14T00:36:36.387Z,5.57
2022-08-14T00:39:14.666Z,6.80
2022-08-14T00:41:43.513Z,5.38
2022-08-14T00:44:12.393Z,5.43
2022-08-14T00:46:41.124Z,5.90
2022-08-14T00:49:14.495Z,8.18
2022-08-14T00:51:45.591Z,5.43
2022-08-14T00:54:22.113Z,5.68
2022-08-14T00:56:55.543Z,5.97
2022-08-14T00:59:25.031Z,5.95
2022-08-14T01:01:54.330Z,5.60
2022-08-14T01:04:37.913Z,5.95
2022-08-14T01:07:21.142Z,6.13
2022-08-14T01:09:51.483Z,6.10
2022-08-14T01:12:27.218Z,5.90
2022-08-14T01:15:09.786Z,6.53
2022-08-14T01:18:00.852Z,6.15
2022-08-14T01:20:58.713Z,6.07
2022-08-14T01:23:41.847Z,7.38
2022-08-14T01:26:34.835Z,6.43
2022-08-14T01:29:11.011Z,6.25
2022-08-14T01:31:52.321Z,6.43
2022-08-14T01:35:20.262Z,6.40
2022-08-14T01:37:12.002Z,5.88
2022-08-14T01:39:46.348Z,5.88
2022-08-14T01:42:31.636Z,6.53
2022-08-14T01:45:11.839Z,6.50
2022-08-14T01:47:40.499Z,6.40
2022-08-14T01:50:10.237Z,6.25
2022-08-14T01:53:00.191Z,6.15
2022-08-14T01:55:30.608Z,5.82
2022-08-14T01:58:01.406Z,6.22
2022-08-14T02:00:48.042Z,6.75
2022-08-14T02:03:17.231Z,6.40
2022-08-14T02:05:46.088Z,6.90
2022-08-14T02:08:16.071Z,6.47
2022-08-14T02:11:15.881Z,6.68
2022-08-14T02:13:46.558Z,7.15
2022-08-14T02:16:22.142Z,6.75
2022-08-14T02:18:51.593Z,7.32
2022-08-14T02:21:23.418Z,6.90
2022-08-14T02:23:54.085Z,6.53
2022-08-14T02:26:29.685Z,6.80
2022-08-14T02:29:03.387Z,7.20
2022-08-14T02:31:42.538Z,6.88
2022-08-14T02:34:20.152Z,6.57
2022-08-14T02:37:04.627Z,7.03
2022-08-14T02:39:36.254Z,7.25
2022-08-14T02:42:13.201Z,7.32
2022-08-14T02:44:43.165Z,7.13
2022-08-14T02:47:20.991Z,7.20
2022-08-14T02:49:54.625Z,7.53
2022-08-14T02:52:56.410Z,7.38
2022-08-14T02:55:15.564Z,6.90
2022-08-14T02:58:03.061Z,7.50
2022-08-14T03:00:33.177Z,7.28
2022-08-14T03:03:02.981Z,7.20
2022-08-14T03:05:41.345Z,7.05
2022-08-14T03:08:11.848Z,6.88
2022-08-14T03:10:49.118Z,7.88
2022-08-14T03:13:21.510Z,7.72
2022-08-14T03:15:55.268Z,8.25
2022-08-14T03:18:31.097Z,6.95
2022-08-14T03:21:02.072Z,7.60
2022-08-14T03:23:38.062Z,7.30
2022-08-14T03:26:08.596Z,8.07
2022-08-14T03:28:39.261Z,7.45
2022-08-14T03:31:13.183Z,7.55
2022-08-14T03:33:42.069Z,7.95
2022-08-14T03:37:37.889Z,8.57
2022-08-14T03:39:14.330Z,7.65
2022-08-14T03:41:50.292Z,7.32
2022-08-14T03:45:19.856Z,7.78
2022-08-14T03:47:09.068Z,7.65
2022-08-14T03:49:42.216Z,7.68
2022-08-14T03:52:28.094Z,7.60
2022-08-14T03:55:00.407Z,7.75
2022-08-14T03:57:32.878Z,7.68
2022-08-14T04:00:13.994Z,7.82
2022-08-14T04:02:59.281Z,8.00
2022-08-14T04:05:27.712Z,8.32
2022-08-14T04:08:08.308Z,7.97
2022-08-14T04:10:46.347Z,8.13
2022-08-14T04:13:18.380Z,8.90
2022-08-14T04:15:56.554Z,8.65
2022-08-14T04:18:30.538Z,8.40
2022-08-14T04:20:59.288Z,8.75
2022-08-14T04:23:29.409Z,8.43
2022-08-14T04:26:01.566Z,8.45
2022-08-14T04:29:07.860Z,8.57
2022-08-14T04:31:25.089Z,7.70
2022-08-14T04:34:16.971Z,8.20
2022-08-14T04:37:07.293Z,8.80
2022-08-14T04:39:56.948Z,8.85
2022-08-14T04:42:47.477Z,8.93
2022-08-14T04:45:20.096Z,8.10
2022-08-14T04:48:10.052Z,8.50
2022-08-14T04:50:44.802Z,9.00
2022-08-14T04:53:14.494Z,8.30
2022-08-14T04:55:44.609Z,8.05
2022-08-14T04:58:21.626Z,9.02
2022-08-14T05:00:52.107Z,8.77
2022-08-14T05:03:23.028Z,8.40
2022-08-14T05:05:54.517Z,9.35
2022-08-14T05:08:32.182Z,8.98
2022-08-14T05:11:13.460Z,8.70
2022-08-14T05:16:32.387Z,8.65
2022-08-14T05:19:17.683Z,8.75
2022-08-14T05:22:17.015Z,9.00
2022-08-14T05:24:50.463Z,8.50
2022-08-14T05:27:23.257Z,9.43
2022-08-14T05:29:53.362Z,9.10
2022-08-14T05:32:22.164Z,9.02
2022-08-14T05:34:52.813Z,9.23
2022-08-14T05:37:30.048Z,9.60
2022-08-14T05:39:59.520Z,8.98
2022-08-14T05:42:33.902Z,9.13
2022-08-14T05:45:04.005Z,9.27
2022-08-14T05:47:39.233Z,8.80
2022-08-14T05:50:17.272Z,8.65
2022-08-14T05:52:48.095Z,8.77
2022-08-14T05:55:16.701Z,9.73
2022-08-14T05:57:49.270Z,9.32
2022-08-14T06:00:28.988Z,9.00
2022-08-14T06:03:00.181Z,8.68
2022-08-14T06:05:30.409Z,10.00
2022-08-14T06:07:59.262Z,8.45
2022-08-14T06:10:28.342Z,9.27
2022-08-14T06:12:58.142Z,8.68
2022-08-14T06:15:30.329Z,10.07
2022-08-14T06:18:00.336Z,10.98
2022-08-14T06:20:31.254Z,9.50
2022-08-14T06:23:00.179Z,10.48
2022-08-14T06:25:29.088Z,9.18
2022-08-14T06:27:58.011Z,9.65
2022-08-14T06:30:45.778Z,10.00
2022-08-14T06:33:15.912Z,9.50
2022-08-14T06:35:46.786Z,9.77
2022-08-14T06:38:17.960Z,9.88
2022-08-14T06:40:47.138Z,9.88
2022-08-14T06:43:19.830Z,9.02
2022-08-14T06:45:53.889Z,9.35
2022-08-14T06:48:24.260Z,9.98
2022-08-14T06:50:54.953Z,10.10
2022-08-14T06:53:27.715Z,8.93
2022-08-14T06:56:01.846Z,8.90
2022-08-14T06:58:32.245Z,9.80
2022-08-14T07:01:27.540Z,9.90
2022-08-14T07:04:22.845Z,10.10
2022-08-14T07:06:55.530Z,9.88
2022-08-14T07:09:27.852Z,9.07
2022-08-14T07:11:56.514Z,9.40
2022-08-14T07:14:26.474Z,8.95
2022-08-14T07:16:54.927Z,9.77
2022-08-14T07:19:23.772Z,10.40
2022-08-14T07:21:52.172Z,9.90
2022-08-14T07:24:31.037Z,10.52
2022-08-14T07:27:00.079Z,8.80
2022-08-14T07:29:31.021Z,9.88
2022-08-14T07:31:59.409Z,8.90
2022-08-14T07:34:36.471Z,8.75
2022-08-14T07:37:09.921Z,9.00
2022-08-14T07:39:40.023Z,9.20
2022-08-14T07:42:13.088Z,9.25
2022-08-14T07:44:46.638Z,9.52
2022-08-14T07:47:17.665Z,8.65
2022-08-14T07:49:55.463Z,9.18
2022-08-14T07:52:30.574Z,11.70
2022-08-14T07:55:02.322Z,9.02
2022-08-14T07:57:30.816Z,9.73
2022-08-14T07:59:59.246Z,8.93
2022-08-14T08:02:32.739Z,8.88
2022-08-14T08:05:02.683Z,8.60
2022-08-14T08:07:32.020Z,9.80
2022-08-14T08:10:45.965Z,8.50
2022-08-14T08:13:13.953Z,9.35
2022-08-14T08:15:44.090Z,9.00
2022-08-14T08:18:27.300Z,9.90
2022-08-14T08:20:59.582Z,9.05
2022-08-14T08:23:34.956Z,8.95
2022-08-14T08:26:10.782Z,7.85
2022-08-14T08:28:41.547Z,8.57
2022-08-14T08:31:13.720Z,9.32
2022-08-14T08:33:44.933Z,11.88
2022-08-14T08:36:18.753Z,8.63
2022-08-14T08:39:17.532Z,8.07
2022-08-14T08:41:50.658Z,8.43
2022-08-14T08:44:32.117Z,8.60
2022-08-14T08:47:06.146Z,9.02
2022-08-14T08:49:48.872Z,8.63
2022-08-14T08:52:31.727Z,9.10
2022-08-14T08:55:00.753Z,8.48
2022-08-14T08:57:35.895Z,8.02
2022-08-14T09:00:25.358Z,8.38
2022-08-14T09:02:57.521Z,8.90
2022-08-14T09:05:26.655Z,9.02
2022-08-14T09:07:56.451Z,8.90
2022-08-14T09:10:27.096Z,8.60
2022-08-14T09:12:57.439Z,8.25
2022-08-14T09:15:26.027Z,8.68
2022-08-14T09:18:11.766Z,8.07
2022-08-14T09:20:41.103Z,8.20
2022-08-14T09:23:11.171Z,8.18
2022-08-14T09:26:01.421Z,7.60
2022-08-14T09:28:31.828Z,7.20
2022-08-14T09:31:17.423Z,7.38
2022-08-14T09:33:56.604Z,7.97
2022-08-14T09:36:30.469Z,7.95
2022-08-14T09:39:10.647Z,8.15
2022-08-14T09:42:20.246Z,8.18
2022-08-14T09:44:46.084Z,7.53
2022-08-14T09:47:18.750Z,7.35
2022-08-14T09:49:53.025Z,7.60
2022-08-14T09:52:33.205Z,7.68
2022-08-14T09:55:03.343Z,8.02
2022-08-14T09:57:32.617Z,6.93
2022-08-14T10:00:30.585Z,7.13
2022-08-14T10:03:05.861Z,7.30
2022-08-14T10:05:37.940Z,6.50
2022-08-14T10:08:22.019Z,6.60
2022-08-14T10:11:02.934Z,6.88
2022-08-14T10:13:43.010Z,6.80
2022-08-14T10:16:27.487Z,7.10
2022-08-14T10:19:07.160Z,8.77
2022-08-14T10:21:38.861Z,7.30
2022-08-14T10:24:37.035Z,7.03
2022-08-14T10:27:06.760Z,7.47
2022-08-14T10:29:36.062Z,7.15
2022-08-14T10:32:17.641Z,7.15
2022-08-14T10:34:52.511Z,6.90
2022-08-14T10:37:22.978Z,7.30
2022-08-14T10:40:01.686Z,8.95
2022-08-14T10:42:37.961Z,6.78
2022-08-14T10:45:21.234Z,7.35
2022-08-14T10:48:08.774Z,6.30
2022-08-14T10:50:45.816Z,7.70
2022-08-14T10:53:15.870Z,7.38
2022-08-14T10:55:45.418Z,7.22
2022-08-14T10:58:14.824Z,7.15
2022-08-14T11:00:47.030Z,7.30
2022-08-14T11:03:19.804Z,6.65
2022-08-14T11:05:56.143Z,6.57
2022-08-14T11:08:33.009Z,7.00
2022-08-14T11:11:03.152Z,7.20
2022-08-14T11:13:35.850Z,7.60
2022-08-14T11:16:04.479Z,7.18
2022-08-14T11:18:40.414Z,6.70
2022-08-14T11:21:09.895Z,6.88
2022-08-14T11:23:43.950Z,9.13
2022-08-14T11:26:14.101Z,7.05
2022-08-14T11:28:48.170Z,6.75
2022-08-14T11:31:18.074Z,8.15
2022-08-14T11:33:51.899Z,6.47
2022-08-14T11:36:24.429Z,6.85
2022-08-14T11:39:33.804Z,6.70
2022-08-14T11:42:55.433Z,8.05
2022-08-14T11:44:56.797Z,6.95
2022-08-14T11:47:35.402Z,6.85
2022-08-14T11:50:33.383Z,6.25
2022-08-14T11:53:05.627Z,6.80
2022-08-14T11:55:37.985Z,6.63
2022-08-14T11:58:08.776Z,6.63
2022-08-14T12:00:47.483Z,6.72
2022-08-14T12:03:22.617Z,7.03
2022-08-14T12:06:28.663Z,6.88
2022-08-14T12:09:00.571Z,6.95
2022-08-14T12:11:43.106Z,6.75
2022-08-14T12:14:30.532Z,6.90
2022-08-14T12:20:52.472Z,6.68
2022-08-14T12:23:23.529Z,6.65
2022-08-14T12:26:12.169Z,6.45
2022-08-14T12:29:00.031Z,6.95
2022-08-14T12:31:36.201Z,6.55
2022-08-14T12:34:14.785Z,5.70
2022-08-14T12:36:50.614Z,5.93
2022-08-14T12:39:21.047Z,5.40
2022-08-14T12:44:33.351Z,6.35
2022-08-14T12:47:06.453Z,6.70
2022-08-14T12:49:35.238Z,6.93
2022-08-14T12:52:04.049Z,6.88
2022-08-14T12:54:32.809Z,6.95
2022-08-14T12:57:08.127Z,5.93
2022-08-14T12:59:43.065Z,6.82
2022-08-14T13:04:21.643Z,6.03
2022-08-14T13:06:52.791Z,6.65
2022-08-14T13:09:27.860Z,5.68
2022-08-14T13:12:33.494Z,6.88
2022-08-14T13:14:55.829Z,7.07
2022-08-14T13:17:25.384Z,6.28
2022-08-14T13:19:58.380Z,6.30
2022-08-14T13:22:32.051Z,6.10
2022-08-14T13:25:02.064Z,6.20
2022-08-14T13:27:34.040Z,6.07
2022-08-14T13:30:10.478Z,6.03
2022-08-14T13:32:40.744Z,6.55
2022-08-14T13:35:12.345Z,6.43
2022-08-14T13:37:45.817Z,5.93
2022-08-14T13:40:16.190Z,6.70
2022-08-14T13:42:45.622Z,6.38
2022-08-14T13:45:17.157Z,5.88
2022-08-14T13:47:48.584Z,5.88
2022-08-14T13:50:21.393Z,5.55
2022-08-14T13:52:54.627Z,5.20
2022-08-14T13:55:24.342Z,5.20
2022-08-14T13:58:04.099Z,5.28
2022-08-14T14:00:36.081Z,5.47
2022-08-14T14:03:22.959Z,5.65
2022-08-14T14:05:54.484Z,5.50
2022-08-14T14:08:46.284Z,6.53
2022-08-14T14:11:15.769Z,5.82
2022-08-14T14:13:45.898Z,5.57
2022-08-14T14:16:26.035Z,5.95
2022-08-14T14:19:06.859Z,5.35
2022-08-14T14:21:40.931Z,5.53
2022-08-14T14:24:15.127Z,5.63
2022-08-14T14:26:46.867Z,6.40
2022-08-14T14:29:16.846Z,5.82
2022-08-14T14:31:47.923Z,5.82
2022-08-14T14:34:29.110Z,5.97
2022-08-14T14:37:02.911Z,6.18
2022-08-14T14:39:37.443Z,6.00
2022-08-14T14:42:32.004Z,5.65
2022-08-14T14:45:04.695Z,6.10
2022-08-14T14:47:35.256Z,5.65
2022-08-14T14:50:05.113Z,5.95
2022-08-14T14:52:37.069Z,5.97
2022-08-14T14:55:09.037Z,5.75
2022-08-14T14:57:37.877Z,5.95
2022-08-14T15:00:12.697Z,5.22
2022-08-14T15:02:42.665Z,5.57
2022-08-14T15:05:12.591Z,6.35
2022-08-14T15:07:43.145Z,6.18
2022-08-14T15:10:26.893Z,8.18
2022-08-14T15:13:00.213Z,5.82
2022-08-14T15:15:29.071Z,5.63
2022-08-14T15:18:01.609Z,5.55
2022-08-14T15:20:31.391Z,5.85
2022-08-14T15:23:12.068Z,5.80
2022-08-14T15:25:41.731Z,5.50
2022-08-14T15:28:12.578Z,5.78
2022-08-14T15:30:41.766Z,6.00
2022-08-14T15:33:10.241Z,5.03
2022-08-14T15:35:45.896Z,5.25
2022-08-14T15:38:17.839Z,5.60
2022-08-14T15:40:51.551Z,5.65
2022-08-14T15:43:27.184Z,5.63
2022-08-14T15:45:56.417Z,5.22
2022-08-14T15:48:25.690Z,5.60
2022-08-14T15:50:58.017Z,5.90
2022-08-14T15:53:31.643Z,5.65
2022-08-14T15:56:00.757Z,5.43
2022-08-14T15:58:30.742Z,5.35
2022-08-14T16:01:31.186Z,5.65
2022-08-14T16:04:05.761Z,5.53
2022-08-14T16:06:35.829Z,5.10
2022-08-14T16:09:11.016Z,5.43
2022-08-14T16:11:47.535Z,5.72
2022-08-14T16:14:22.056Z,5.53
2022-08-14T16:17:00.185Z,5.60
2022-08-14T16:19:31.142Z,5.78
2022-08-14T16:22:57.572Z,5.50
2022-08-14T16:24:59.828Z,4.80
2022-08-14T16:27:39.097Z,5.05
2022-08-14T16:30:20.611Z,5.15
2022-08-14T16:32:56.920Z,5.18
2022-08-14T16:35:42.173Z,5.78
2022-08-14T16:38:19.035Z,5.13
2022-08-14T16:41:27.027Z,5.90
2022-08-14T16:43:59.178Z,5.68
2022-08-14T16:46:29.009Z,5.35
2022-08-14T16:48:59.098Z,5.63
2022-08-14T16:51:28.101Z,5.68
2022-08-14T16:53:56.802Z,5.50
2022-08-14T16:56:35.001Z,5.22
2022-08-14T16:59:06.590Z,5.28
2022-08-14T17:01:36.914Z,5.07
2022-08-14T17:04:14.639Z,5.45
2022-08-14T17:06:50.197Z,5.55
2022-08-14T17:09:32.432Z,5.57
2022-08-14T17:12:07.597Z,4.90
2022-08-14T17:15:03.134Z,5.95
2022-08-14T17:17:50.065Z,6.43
2022-08-14T17:20:53.062Z,5.80
2022-08-14T17:23:16.004Z,6.00
2022-08-14T17:25:50.750Z,5.90
2022-08-14T17:31:12.221Z,5.93
2022-08-14T17:36:30.213Z,5.65
2022-08-14T17:39:05.945Z,6.32
2022-08-14T17:41:37.637Z,6.18
2022-08-14T17:44:21.366Z,5.80
2022-08-14T17:46:55.202Z,5.97
2022-08-14T17:49:27.820Z,6.32
2022-08-14T17:52:07.651Z,5.78
2022-08-14T17:54:38.504Z,6.18
2022-08-14T17:57:14.080Z,5.70
2022-08-14T17:59:44.575Z,6.20
2022-08-14T18:02:16.343Z,5.97
2022-08-14T18:04:45.779Z,6.32
2022-08-14T18:08:00.340Z,6.60
2022-08-14T18:10:55.019Z,5.60
2022-08-14T18:12:56.382Z,5.97
2022-08-14T18:15:33.752Z,6.05
2022-08-14T18:18:06.916Z,6.03
2022-08-14T18:21:24.073Z,6.68
2022-08-14T18:23:26.765Z,6.65
2022-08-14T18:25:58.782Z,6.30
2022-08-14T18:28:48.065Z,7.22
2022-08-14T18:31:43.904Z,5.45
2022-08-14T18:34:30.623Z,4.95
2022-08-14T18:37:13.862Z,4.40
2022-08-14T18:40:01.815Z,4.80
2022-08-14T18:42:45.360Z,4.55
2022-08-14T18:45:15.915Z,4.35
2022-08-14T18:48:14.550Z,4.40
2022-08-14T18:50:52.768Z,4.32
2022-08-14T18:53:24.400Z,3.58
2022-08-14T18:55:54.689Z,4.63
2022-08-14T19:00:55.983Z,4.55
2022-08-14T19:03:54.597Z,4.85
2022-08-14T19:06:37.484Z,4.10
2022-08-14T19:09:06.378Z,3.85
2022-08-14T19:11:51.490Z,3.75
2022-08-14T19:14:40.527Z,3.95
2022-08-14T19:17:23.915Z,4.00
2022-08-14T19:20:08.027Z,4.63
2022-08-14T19:22:37.228Z,4.40
2022-08-14T19:25:07.491Z,4.47
2022-08-14T19:27:41.121Z,6.13
2022-08-14T19:33:02.519Z,4.85
2022-08-14T19:35:55.860Z,4.78
2022-08-14T19:38:48.478Z,4.15
2022-08-14T19:41:22.079Z,7.22
2022-08-14T19:43:56.919Z,4.13
2022-08-14T19:46:37.926Z,4.30
2022-08-14T19:49:23.480Z,4.13
2022-08-14T19:52:17.676Z,4.20
2022-08-14T19:54:50.505Z,4.15
2022-08-14T19:57:20.736Z,4.50
2022-08-14T19:59:57.740Z,4.70
2022-08-14T20:02:30.013Z,4.32
2022-08-14T20:05:03.836Z,3.90
2022-08-14T20:07:59.508Z,5.80
2022-08-14T20:11:04.107Z,4.35
2022-08-14T20:13:32.219Z,4.90
2022-08-14T20:16:11.891Z,4.72
2022-08-14T20:18:49.998Z,5.97
2022-08-14T20:21:21.523Z,5.28
2022-08-14T20:23:50.418Z,5.38
2022-08-14T20:26:31.521Z,5.18
2022-08-14T20:29:04.588Z,5.25
2022-08-14T20:31:36.488Z,4.70
2022-08-14T20:34:08.000Z,5.15
2022-08-14T20:37:04.394Z,4.90
2022-08-14T20:39:34.362Z,5.75
2022-08-14T20:42:24.916Z,5.93
2022-08-14T20:45:13.253Z,5.20
2022-08-14T20:47:50.604Z,5.80
2022-08-14T20:50:28.615Z,5.53
2022-08-14T20:53:05.985Z,6.03
2022-08-14T20:55:41.581Z,5.95
2022-08-14T20:58:41.759Z,5.63
2022-08-14T21:01:34.774Z,6.20
2022-08-14T21:04:11.873Z,5.55
2022-08-14T21:07:22.878Z,6.75
2022-08-14T21:10:05.353Z,5.82
2022-08-14T21:12:34.378Z,5.80
2022-08-14T21:15:04.996Z,5.47
2022-08-14T21:20:54.939Z,7.05
2022-08-14T21:23:23.713Z,6.10
2022-08-14T21:25:52.442Z,5.60
2022-08-14T21:28:30.399Z,6.10
2022-08-14T21:31:03.900Z,6.15
2022-08-14T21:33:32.932Z,8.30
2022-08-14T21:36:07.581Z,5.90
2022-08-14T21:38:38.066Z,5.60
2022-08-14T21:41:43.066Z,5.80
2022-08-14T21:44:18.242Z,5.90
2022-08-14T21:46:50.395Z,6.18
2022-08-14T21:49:21.087Z,6.03
2022-08-14T21:51:57.187Z,6.15
2022-08-14T21:54:32.146Z,6.47
2022-08-14T21:58:03.764Z,5.82
2022-08-14T22:00:35.923Z,9.02
2022-08-14T22:03:02.790Z,6.40
2022-08-14T22:05:31.313Z,6.47
2022-08-14T22:08:02.433Z,7.20
2022-08-14T22:10:32.623Z,7.18
2022-08-14T22:13:02.048Z,7.75
2022-08-14T22:15:31.790Z,7.90
2022-08-14T22:18:04.371Z,7.45
2022-08-14T22:20:33.721Z,7.50
2022-08-14T22:23:04.822Z,6.85
2022-08-14T22:25:40.835Z,6.35
2022-08-14T22:28:11.253Z,6.68
2022-08-14T22:30:41.763Z,7.05
2022-08-14T22:33:13.232Z,6.70
2022-08-14T22:35:42.705Z,9.05
2022-08-14T22:38:35.503Z,7.22
2022-08-14T22:41:26.627Z,7.32
2022-08-14T22:43:51.191Z,7.60
2022-08-14T22:46:20.797Z,7.47
2022-08-14T22:48:49.651Z,7.18
2022-08-14T22:51:19.610Z,6.90
2022-08-14T22:53:52.334Z,7.22
2022-08-14T22:56:29.081Z,6.47
2022-08-14T22:58:59.209Z,6.45
2022-08-14T23:01:56.060Z,6.82
2022-08-14T23:04:35.392Z,6.20
2022-08-14T23:07:22.871Z,6.68
2022-08-14T23:09:55.743Z,6.55
2022-08-14T23:12:28.506Z,6.82
2022-08-14T23:14:58.053Z,7.13
2022-08-14T23:17:27.685Z,6.88
2022-08-14T23:20:18.462Z,6.60
2022-08-14T23:22:48.703Z,6.07
2022-08-14T23:25:53.201Z,6.57
2022-08-14T23:28:33.576Z,7.32
2022-08-14T23:31:00.451Z,6.70
2022-08-14T23:33:29.206Z,7.10
2022-08-14T23:35:59.443Z,6.13
2022-08-14T23:38:31.059Z,7.15
2022-08-14T23:41:02.453Z,6.95
2022-08-14T23:44:22.036Z,6.95
2022-08-14T23:46:52.542Z,6.45
2022-08-14T23:49:25.529Z,6.95
2022-08-14T23:52:49.699Z,6.43
2022-08-14T23:54:48.005Z,6.95
2022-08-14T23:57:19.344Z,6.50
2022-08-14T23:59:54.477Z,7.18
